Bookmark and Share
Track history (hours):
 

Ryuhomaru

Last reported at 2014-Apr-20 05:33 UTC. Time now 2014-Apr-20 13:23 UTC.
Position N 34°33' E 135°27'.

Length 42 m; draft 3.5 m.

Type: Tug. MMSI: 431000586.

NotesDate/timePositionNaut miles runAvg speedWind from/ knotsBaromVisibWave heightAir tempDewpointWater temp
2014-Apr-20 05:33N 34°33' E 135°27'0 0.0
2014-Apr-20 04:33N 34°33' E 135°27'0 0.0
2014-Apr-20 03:32N 34°33' E 135°27'3 3.2
2014-Apr-20 02:32N 34°31' E 135°24'2 1.9
2014-Apr-20 01:19N 34°29' E 135°22'3 3.3
2014-Apr-20 00:33N 34°31' E 135°21'5 5.3
2014-Apr-19 23:33N 34°33' E 135°27'0 0.0
2014-Apr-19 05:33N 34°33' E 135°27'0 0.0
2014-Apr-19 04:33N 34°33' E 135°27'2 1.7
2014-Apr-19 03:33N 34°33' E 135°25'1 0.8
2014-Apr-19 02:27N 34°33' E 135°25'1 1.4
2014-Apr-19 01:33N 34°33' E 135°27'0 0.0
2014-Apr-19 00:33N 34°33' E 135°27'0 0.0
2014-Apr-18 23:33N 34°33' E 135°27'0 0.0
2014-Apr-18 22:33N 34°33' E 135°27'0 0.0
2014-Apr-17 06:17N 34°33' E 135°27'5 6.9
2014-Apr-17 05:33N 34°33' E 135°21'4 3.3
2014-Apr-17 04:29N 34°33' E 135°25'0 0.1
2014-Apr-17 03:32N 34°33' E 135°25'0 0.1
2014-Apr-17 02:33N 34°33' E 135°25'0 0.1
2014-Apr-17 01:33N 34°33' E 135°25'0 0.2
2014-Apr-17 00:33N 34°33' E 135°25'0 0.1
2014-Apr-16 23:33N 34°33' E 135°25'0 0.0
2014-Apr-16 22:33N 34°33' E 135°25'0 0.1
2014-Apr-16 21:28N 34°33' E 135°25'0 0.1
2014-Apr-16 20:31N 34°33' E 135°25'0 0.0
2014-Apr-16 19:33N 34°33' E 135°25'0 0.0
2014-Apr-16 18:29N 34°33' E 135°25'0 0.1
2014-Apr-16 17:33N 34°33' E 135°25'0 0.1
2014-Apr-16 16:33N 34°33' E 135°25'0 0.2
2014-Apr-16 15:33N 34°33' E 135°25'0 0.1
2014-Apr-16 14:32N 34°33' E 135°25'0 0.0
2014-Apr-16 13:32N 34°33' E 135°25'0 0.1
2014-Apr-16 12:33N 34°33' E 135°25'0 0.1
2014-Apr-16 11:32N 34°33' E 135°25'0 0.0
2014-Apr-16 10:27N 34°33' E 135°25'0 0.0
2014-Apr-16 09:31N 34°33' E 135°25'0 0.0
2014-Apr-16 08:32N 34°33' E 135°25'0 0.0
2014-Apr-16 07:33N 34°33' E 135°25'0 0.1
2014-Apr-16 06:33N 34°33' E 135°25'0 0.1
2014-Apr-16 05:28N 34°33' E 135°25'0 0.0
2014-Apr-16 04:33N 34°33' E 135°25'0 0.0
2014-Apr-16 03:33N 34°33' E 135°25'0 0.1
2014-Apr-16 02:33N 34°33' E 135°25'0 0.1
2014-Apr-16 01:24N 34°33' E 135°25'3 3.5
2014-Apr-16 00:32N 34°33' E 135°21'2 2.1
2014-Apr-15 23:33N 34°32' E 135°19'6 6.0
2014-Apr-15 22:33N 34°33' E 135°27'0 0.0
2014-Apr-15 21:33N 34°33' E 135°27'0 0.0
2014-Apr-14 05:33N 34°33' E 135°27'0 0.0
2014-Apr-13 05:33N 34°33' E 135°27'0 0.0
2014-Apr-13 04:33N 34°33' E 135°27'0 0.0
2014-Apr-13 03:33N 34°33' E 135°27'0 0.0
2014-Apr-13 02:33N 34°33' E 135°27'0 0.0
2014-Apr-13 01:33N 34°33' E 135°27'2 2.2
2014-Apr-13 00:33N 34°33' E 135°24'2 1.8
2014-Apr-12 23:33N 34°33' E 135°26'0 0.5
2014-Apr-12 22:33N 34°33' E 135°27'0 0.0
2014-Apr-12 21:33N 34°33' E 135°27'  
2014-Apr-10 11:28N 34°33' E 135°27'5 5.2
2014-Apr-10 10:33N 34°37' E 135°24'1 0.8
2014-Apr-10 09:33N 34°38' E 135°25'5 5.0
2014-Apr-10 08:31N 34°33' E 135°27'0 0.1
2014-Apr-10 07:33N 34°33' E 135°27'0 0.0
2014-Apr-10 06:33N 34°33' E 135°27'  

Dump ship's entire track history

sailing weather and tide predictions

Ryuhomaru — JD2639 — position and weather